Nonquitt, Massachusetts
Current Conditions -  °F | °C
As of 5:53 PM on Friday 19 Dec 2014 (Local Time) from KEWB Reporting Station
Overcast Overcast  
Wind Chill: 33°   Ceiling: 3400
Heat Index: 33°   Visibility: 10mi
Dew Point: 23°   Wind: 0mph
Humidity: 66%   Direction: NA
Pressure: 30.03"   Gusts: NA
Location:  41.5609°N, 70.9815°W
Report Text: KEWB 192253Z 00000KT 10SM OVC034 01/M05 A3003 RMK AO2 SLP169 T00061050
Loading
Personal Weather Stations






























Interactive Weather Map New forecast layout! Learn more

10-Day Weather Forecast

Advertisements
Track Severe Weather on mobile